createdAt,value
2023-05-13T00:00:39.389Z,19.99
2023-05-13T00:03:06.018Z,20.01
2023-05-13T00:05:32.637Z,20.01
2023-05-13T00:08:02.184Z,20.01
2023-05-13T00:10:28.826Z,20.01
2023-05-13T00:12:55.421Z,19.99
2023-05-13T00:15:22.080Z,19.99
2023-05-13T00:17:48.789Z,19.98
2023-05-13T00:20:15.405Z,19.97
2023-05-13T00:22:42.159Z,19.97
2023-05-13T00:25:08.975Z,19.96
2023-05-13T00:27:35.558Z,19.98
2023-05-13T00:30:02.156Z,19.95
2023-05-13T00:32:28.902Z,19.95
2023-05-13T00:34:55.781Z,19.95
2023-05-13T00:37:22.330Z,19.95
2023-05-13T00:39:49.140Z,19.97
2023-05-13T00:42:15.822Z,19.94
2023-05-13T00:44:42.542Z,19.94
2023-05-13T00:49:37.589Z,19.94
2023-05-13T00:52:04.680Z,19.95
2023-05-13T00:54:31.259Z,19.94
2023-05-13T00:56:58.412Z,19.95
2023-05-13T00:59:26.010Z,19.93
2023-05-13T01:02:16.503Z,19.94
2023-05-13T01:04:46.454Z,19.93
2023-05-13T01:07:18.814Z,19.93
2023-05-13T01:09:55.363Z,19.92
2023-05-13T01:12:24.863Z,19.93
2023-05-13T01:14:55.062Z,19.92
2023-05-13T01:17:42.078Z,19.92
2023-05-13T01:20:08.689Z,19.90
2023-05-13T01:25:01.665Z,19.90
2023-05-13T01:27:28.359Z,19.92
2023-05-13T01:29:55.553Z,19.90
2023-05-13T01:32:22.876Z,19.90
2023-05-13T01:34:51.837Z,19.90
2023-05-13T01:37:18.698Z,19.91
2023-05-13T01:39:45.570Z,19.90
2023-05-13T01:42:12.139Z,19.90
2023-05-13T01:44:38.693Z,19.90
2023-05-13T01:49:32.037Z,19.88
2023-05-13T01:51:58.585Z,19.88
2023-05-13T01:54:26.043Z,19.88
2023-05-13T01:56:53.017Z,19.89
2023-05-13T01:59:19.518Z,19.90
2023-05-13T02:01:46.212Z,19.89
2023-05-13T02:04:12.793Z,19.89
2023-05-13T02:06:39.279Z,19.89
2023-05-13T02:09:05.782Z,19.89
2023-05-13T02:13:58.778Z,19.87
2023-05-13T02:16:25.320Z,19.89
2023-05-13T02:18:51.882Z,19.86
2023-05-13T02:21:18.469Z,19.87
2023-05-13T02:23:44.966Z,19.89
2023-05-13T02:26:11.555Z,19.88
2023-05-13T02:28:38.080Z,19.86
2023-05-13T02:31:04.652Z,19.86
2023-05-13T02:33:31.185Z,19.86
2023-05-13T02:35:57.715Z,19.86
2023-05-13T02:38:24.475Z,19.87
2023-05-13T02:40:51.382Z,19.86
2023-05-13T02:43:18.068Z,19.87
2023-05-13T02:45:44.568Z,19.86
2023-05-13T02:50:37.794Z,19.84
2023-05-13T02:53:04.398Z,19.85
2023-05-13T02:55:30.949Z,19.82
2023-05-13T02:57:57.539Z,19.85
2023-05-13T03:00:24.224Z,19.83
2023-05-13T03:02:50.990Z,19.82
2023-05-13T03:05:17.665Z,19.82
2023-05-13T03:07:44.360Z,19.82
2023-05-13T03:10:10.907Z,19.82
2023-05-13T03:12:37.425Z,19.83
2023-05-13T03:15:04.274Z,19.82
2023-05-13T03:17:32.035Z,19.81
2023-05-13T03:19:58.814Z,19.82
2023-05-13T03:22:25.355Z,19.81
2023-05-13T03:24:51.862Z,19.80
2023-05-13T03:27:18.914Z,19.80
2023-05-13T03:29:45.416Z,19.79
2023-05-13T03:32:11.949Z,19.80
2023-05-13T03:34:38.531Z,19.78
2023-05-13T03:37:05.732Z,19.78
2023-05-13T03:41:58.893Z,19.79
2023-05-13T03:44:25.401Z,19.77
2023-05-13T03:46:52.004Z,19.77
2023-05-13T03:49:19.198Z,19.76
2023-05-13T03:51:45.914Z,19.76
2023-05-13T03:54:12.344Z,19.78
2023-05-13T03:56:38.807Z,19.77
2023-05-13T04:01:31.655Z,19.77
2023-05-13T04:03:58.259Z,19.75
2023-05-13T04:06:24.801Z,19.75
2023-05-13T04:08:51.534Z,19.74
2023-05-13T04:11:18.110Z,19.77
2023-05-13T04:13:46.090Z,19.75
2023-05-13T04:16:12.739Z,19.74
2023-05-13T04:21:06.142Z,19.71
2023-05-13T04:23:32.677Z,19.73
2023-05-13T04:25:59.239Z,19.73
2023-05-13T04:28:25.804Z,19.74
2023-05-13T04:30:52.571Z,19.71
2023-05-13T04:33:19.096Z,19.72
2023-05-13T04:35:45.598Z,19.72
2023-05-13T04:38:12.300Z,19.71
2023-05-13T04:40:38.908Z,19.71
2023-05-13T04:43:05.456Z,19.72
2023-05-13T04:45:31.987Z,19.71
2023-05-13T04:47:58.691Z,19.70
2023-05-13T04:50:25.490Z,19.71
2023-05-13T04:52:54.911Z,19.70
2023-05-13T04:55:21.637Z,19.70
2023-05-13T04:57:48.440Z,19.69
2023-05-13T05:00:15.238Z,19.70
2023-05-13T05:02:41.864Z,19.70
2023-05-13T05:05:08.774Z,19.69
2023-05-13T05:07:35.334Z,19.70
2023-05-13T05:10:01.930Z,19.69
2023-05-13T05:12:30.818Z,19.68
2023-05-13T05:14:57.443Z,19.68
2023-05-13T05:17:24.240Z,19.68
2023-05-13T05:19:50.795Z,19.68
2023-05-13T05:22:17.299Z,19.67
2023-05-13T05:27:11.602Z,19.66
2023-05-13T05:29:38.189Z,19.66
2023-05-13T05:32:05.086Z,19.66
2023-05-13T05:34:31.760Z,19.65
2023-05-13T05:36:58.305Z,19.65
2023-05-13T05:39:24.789Z,19.65
2023-05-13T05:41:51.385Z,19.65
2023-05-13T05:44:17.916Z,19.67
2023-05-13T05:46:44.443Z,19.66
2023-05-13T05:51:37.684Z,19.62
2023-05-13T05:54:04.338Z,19.64
2023-05-13T05:56:30.986Z,19.64
2023-05-13T05:58:57.524Z,19.64
2023-05-13T06:01:24.023Z,19.63
2023-05-13T06:03:53.019Z,19.64
2023-05-13T06:06:21.231Z,19.62
2023-05-13T06:08:47.773Z,19.61
2023-05-13T06:13:40.643Z,19.58
2023-05-13T06:16:07.221Z,19.60
2023-05-13T06:18:33.881Z,19.59
2023-05-13T06:21:00.394Z,19.59
2023-05-13T06:23:26.935Z,19.60
2023-05-13T06:25:53.518Z,19.59
2023-05-13T06:28:20.154Z,19.58
2023-05-13T06:30:46.903Z,19.59
2023-05-13T06:33:13.494Z,19.58
2023-05-13T06:35:40.058Z,19.60
2023-05-13T06:38:06.634Z,19.64
2023-05-13T06:40:33.390Z,19.71
2023-05-13T06:42:59.949Z,19.79
2023-05-13T06:45:26.564Z,19.86
2023-05-13T06:47:53.542Z,19.91
2023-05-13T06:52:46.754Z,19.98
2023-05-13T06:55:13.362Z,20.02
2023-05-13T06:57:43.276Z,20.06
2023-05-13T07:00:10.499Z,20.11
2023-05-13T07:02:37.033Z,20.16
2023-05-13T07:05:03.596Z,20.22
2023-05-13T07:07:30.132Z,20.26
2023-05-13T07:09:56.873Z,20.33
2023-05-13T07:12:23.555Z,20.39
2023-05-13T07:17:23.118Z,20.50
2023-05-13T07:19:49.635Z,20.56
2023-05-13T07:22:16.316Z,20.61
2023-05-13T07:24:42.807Z,20.64
2023-05-13T07:27:09.487Z,20.67
2023-05-13T07:29:36.099Z,20.72
2023-05-13T07:32:06.114Z,20.74
2023-05-13T07:34:32.720Z,20.77
2023-05-13T07:39:26.733Z,20.83
2023-05-13T07:41:53.719Z,20.94
2023-05-13T07:44:20.200Z,20.97
2023-05-13T07:46:46.777Z,21.02
2023-05-13T07:49:13.366Z,21.06
2023-05-13T07:51:41.176Z,21.08
2023-05-13T07:54:08.853Z,21.11
2023-05-13T07:56:35.532Z,21.09
2023-05-13T07:59:02.173Z,21.13
2023-05-13T08:01:29.146Z,21.13
2023-05-13T08:03:56.256Z,21.14
2023-05-13T08:06:23.081Z,21.15
2023-05-13T08:08:49.559Z,21.15
2023-05-13T08:11:16.087Z,21.15
2023-05-13T08:13:42.554Z,21.18
2023-05-13T08:16:09.145Z,21.16
2023-05-13T08:18:35.946Z,21.20
2023-05-13T08:21:02.520Z,21.19
2023-05-13T08:23:43.489Z,21.20
2023-05-13T08:26:10.609Z,21.20
2023-05-13T08:28:38.177Z,21.19
2023-05-13T08:31:04.938Z,21.19
2023-05-13T08:33:31.911Z,21.21
2023-05-13T08:35:59.752Z,21.19
2023-05-13T08:40:53.077Z,21.18
2023-05-13T08:43:19.691Z,21.17
2023-05-13T08:48:17.212Z,21.16
2023-05-13T08:53:11.948Z,21.12
2023-05-13T08:55:41.632Z,21.09
2023-05-13T08:58:08.323Z,21.06
2023-05-13T09:00:35.465Z,21.06
2023-05-13T09:05:29.138Z,21.03
2023-05-13T09:07:55.794Z,21.01
2023-05-13T09:10:22.375Z,21.00
2023-05-13T09:12:50.191Z,21.01
2023-05-13T09:15:18.017Z,20.99
2023-05-13T09:17:45.835Z,20.98
2023-05-13T09:20:13.142Z,20.97
2023-05-13T09:22:47.280Z,20.95
2023-05-13T09:25:14.386Z,20.93
2023-05-13T09:27:43.098Z,20.93
2023-05-13T09:30:09.699Z,20.92
2023-05-13T09:32:36.690Z,20.91
2023-05-13T09:35:29.437Z,20.89
2023-05-13T09:37:55.958Z,20.88
2023-05-13T09:40:22.764Z,20.87
2023-05-13T09:42:49.797Z,20.85
2023-05-13T09:45:17.311Z,20.82
2023-05-13T09:50:12.467Z,20.81
2023-05-13T09:52:39.037Z,20.82
2023-05-13T09:55:09.058Z,20.84
2023-05-13T09:57:35.564Z,20.83
2023-05-13T10:02:31.990Z,20.80
2023-05-13T10:10:03.001Z,20.80
2023-05-13T10:12:31.683Z,20.77
2023-05-13T10:15:01.997Z,20.77
2023-05-13T10:17:29.535Z,20.75
2023-05-13T10:19:56.500Z,20.74
2023-05-13T10:25:00.716Z,20.72
2023-05-13T10:27:29.099Z,20.72
2023-05-13T10:29:56.999Z,20.71
2023-05-13T10:32:28.382Z,20.70
2023-05-13T10:35:00.966Z,20.69
2023-05-13T10:37:46.968Z,20.68
2023-05-13T10:40:13.480Z,20.66
2023-05-13T10:42:43.034Z,20.67
2023-05-13T10:45:09.629Z,20.64
2023-05-13T10:47:36.990Z,20.65
2023-05-13T10:50:07.573Z,20.64
2023-05-13T10:52:46.453Z,20.62
2023-05-13T10:58:03.923Z,20.60
2023-05-13T11:00:31.121Z,20.60
2023-05-13T11:02:57.627Z,20.59
2023-05-13T11:05:24.201Z,20.59
2023-05-13T11:07:57.559Z,20.57
2023-05-13T11:10:25.272Z,20.57
2023-05-13T11:13:09.089Z,20.56
2023-05-13T11:15:52.301Z,20.55
2023-05-13T11:20:52.507Z,20.55
2023-05-13T11:23:20.149Z,20.54
2023-05-13T11:28:18.552Z,20.52
2023-05-13T11:30:57.598Z,20.53
2023-05-13T11:33:24.216Z,20.53
2023-05-13T11:35:54.781Z,20.52
2023-05-13T11:38:25.112Z,20.52
2023-05-13T11:40:52.566Z,20.51
2023-05-13T11:43:22.366Z,20.50
2023-05-13T11:45:49.782Z,20.50
2023-05-13T11:48:23.379Z,20.50
2023-05-13T11:50:50.698Z,20.50
2023-05-13T11:53:22.367Z,20.47
2023-05-13T11:55:49.009Z,20.48
2023-05-13T11:58:16.462Z,20.47
2023-05-13T12:00:45.815Z,20.47
2023-05-13T12:03:13.566Z,20.45
2023-05-13T12:08:10.828Z,20.44
2023-05-13T12:10:42.941Z,20.44
2023-05-13T12:13:09.434Z,20.42
2023-05-13T12:15:36.061Z,20.42
2023-05-13T12:18:02.980Z,20.41
2023-05-13T12:20:29.661Z,20.40
2023-05-13T12:22:58.869Z,20.40
2023-05-13T12:28:28.424Z,20.31
2023-05-13T12:30:58.959Z,20.27
2023-05-13T12:33:26.852Z,20.29
2023-05-13T12:35:54.456Z,20.28
2023-05-13T12:38:22.181Z,20.26
2023-05-13T12:40:49.180Z,20.28
2023-05-13T12:43:19.764Z,20.30
2023-05-13T12:48:14.621Z,20.27
2023-05-13T12:50:41.169Z,20.29
2023-05-13T12:53:07.753Z,20.26
2023-05-13T12:55:37.017Z,20.26
2023-05-13T12:58:04.031Z,20.29
2023-05-13T13:00:31.065Z,20.25
2023-05-13T13:02:57.732Z,20.25
2023-05-13T13:05:25.187Z,20.26
2023-05-13T13:07:51.915Z,20.26
2023-05-13T13:10:18.576Z,20.26
2023-05-13T13:12:45.170Z,20.28
2023-05-13T13:15:12.184Z,20.28
2023-05-13T13:17:38.915Z,20.23
2023-05-13T13:20:07.846Z,20.28
2023-05-13T13:22:37.067Z,20.26
2023-05-13T13:25:07.150Z,20.26
2023-05-13T13:27:33.659Z,20.25
2023-05-13T13:30:00.554Z,20.25
2023-05-13T13:32:27.114Z,20.25
2023-05-13T13:34:53.794Z,20.24
2023-05-13T13:39:46.881Z,20.23
2023-05-13T13:42:14.019Z,20.23
2023-05-13T13:44:40.691Z,20.21
2023-05-13T13:47:07.208Z,20.22
2023-05-13T13:49:33.696Z,20.20
2023-05-13T13:52:00.266Z,20.20
2023-05-13T13:54:26.890Z,20.21
2023-05-13T13:56:53.529Z,20.21
2023-05-13T13:59:20.096Z,20.20
2023-05-13T14:01:46.953Z,20.18
2023-05-13T14:04:14.438Z,20.18
2023-05-13T14:06:41.076Z,20.17
2023-05-13T14:09:07.692Z,20.17
2023-05-13T14:11:34.375Z,20.17
2023-05-13T14:14:01.065Z,20.16
2023-05-13T14:16:27.864Z,20.14
2023-05-13T14:18:54.619Z,20.15
2023-05-13T14:21:21.137Z,20.15
2023-05-13T14:23:47.695Z,20.15
2023-05-13T14:26:17.214Z,20.15
2023-05-13T14:28:43.936Z,20.14
2023-05-13T14:31:10.628Z,20.12
2023-05-13T14:33:37.336Z,20.13
2023-05-13T14:36:04.071Z,20.12
2023-05-13T14:38:31.504Z,20.14
2023-05-13T14:40:58.674Z,20.12
2023-05-13T14:43:25.158Z,20.12
2023-05-13T14:45:51.837Z,20.13
2023-05-13T14:48:19.350Z,20.12
2023-05-13T14:50:46.533Z,20.12
2023-05-13T14:53:13.173Z,20.10
2023-05-13T14:55:39.668Z,20.12
2023-05-13T14:58:09.133Z,20.12
2023-05-13T15:00:37.765Z,20.12
2023-05-13T15:03:05.113Z,20.12
2023-05-13T15:05:31.797Z,20.12
2023-05-13T15:07:58.925Z,20.11
2023-05-13T15:10:25.429Z,20.11
2023-05-13T15:12:51.990Z,20.10
2023-05-13T15:15:18.561Z,20.10
2023-05-13T15:17:45.254Z,20.11
2023-05-13T15:20:12.047Z,20.09
2023-05-13T15:22:38.565Z,20.10
2023-05-13T15:25:05.816Z,20.09
2023-05-13T15:27:32.378Z,20.08
2023-05-13T15:29:58.943Z,20.10
2023-05-13T15:32:25.504Z,20.07
2023-05-13T15:34:52.028Z,20.07
2023-05-13T15:37:18.905Z,20.07
2023-05-13T15:39:45.444Z,20.07
2023-05-13T15:42:11.983Z,20.05
2023-05-13T15:44:38.740Z,20.06
2023-05-13T15:47:06.270Z,20.07
2023-05-13T15:49:36.483Z,20.06
2023-05-13T15:52:06.204Z,20.05
2023-05-13T15:54:33.971Z,20.05
2023-05-13T15:57:00.500Z,20.05
2023-05-13T15:59:27.025Z,20.05
2023-05-13T16:01:53.996Z,20.05
2023-05-13T16:04:20.738Z,20.04
2023-05-13T16:06:47.293Z,20.03
2023-05-13T16:09:13.826Z,20.06
2023-05-13T16:11:40.332Z,20.05
2023-05-13T16:14:08.835Z,20.04
2023-05-13T16:16:35.532Z,20.02
2023-05-13T16:19:03.707Z,20.02
2023-05-13T16:21:31.569Z,20.01
2023-05-13T16:23:58.216Z,19.98
2023-05-13T16:26:24.844Z,19.98
2023-05-13T16:31:18.116Z,19.95
2023-05-13T16:33:44.726Z,19.95
2023-05-13T16:36:12.044Z,19.93
2023-05-13T16:38:41.328Z,19.92
2023-05-13T16:43:34.860Z,19.89
2023-05-13T16:46:01.438Z,19.88
2023-05-13T16:48:28.044Z,19.86
2023-05-13T16:50:54.593Z,19.86
2023-05-13T16:53:23.839Z,19.85
2023-05-13T16:55:50.391Z,19.83
2023-05-13T16:58:17.000Z,19.84
2023-05-13T17:00:43.636Z,19.82
2023-05-13T17:03:10.660Z,19.80
2023-05-13T17:05:37.559Z,19.80
2023-05-13T17:08:04.144Z,19.78
2023-05-13T17:10:30.713Z,19.79
2023-05-13T17:12:58.314Z,19.77
2023-05-13T17:15:25.103Z,19.77
2023-05-13T17:17:51.753Z,19.76
2023-05-13T17:20:19.851Z,19.76
2023-05-13T17:22:47.510Z,19.74
2023-05-13T17:25:14.676Z,19.74
2023-05-13T17:30:08.302Z,19.72
2023-05-13T17:32:35.020Z,19.72
2023-05-13T17:35:02.536Z,19.72
2023-05-13T17:37:29.062Z,19.70
2023-05-13T17:39:57.628Z,19.69
2023-05-13T17:42:24.096Z,19.69
2023-05-13T17:44:52.030Z,19.68
2023-05-13T17:47:18.767Z,19.69
2023-05-13T17:49:45.584Z,19.68
2023-05-13T17:52:14.801Z,19.66
2023-05-13T17:54:41.674Z,19.66
2023-05-13T17:57:10.122Z,19.66
2023-05-13T17:59:37.199Z,19.64
2023-05-13T18:02:03.997Z,19.64
2023-05-13T18:04:31.779Z,19.65
2023-05-13T18:06:58.532Z,19.62
2023-05-13T18:09:25.516Z,19.61
2023-05-13T18:11:52.834Z,19.61
2023-05-13T18:14:19.585Z,19.60
2023-05-13T18:16:46.357Z,19.60
2023-05-13T18:19:13.224Z,19.60
2023-05-13T18:21:40.009Z,19.59
2023-05-13T18:24:06.992Z,19.59
2023-05-13T18:26:33.937Z,19.57
2023-05-13T18:29:00.803Z,19.57
2023-05-13T18:31:27.598Z,19.57
2023-05-13T18:33:54.466Z,19.57
2023-05-13T18:38:53.429Z,19.56
2023-05-13T18:41:21.644Z,19.54
2023-05-13T18:43:48.706Z,19.53
2023-05-13T18:46:15.831Z,19.52
2023-05-13T18:48:42.858Z,19.53
2023-05-13T18:51:10.379Z,19.51
2023-05-13T18:53:37.892Z,19.51
2023-05-13T18:56:04.995Z,19.49
2023-05-13T18:58:31.890Z,19.49
2023-05-13T19:00:58.834Z,19.50
2023-05-13T19:03:27.399Z,19.48
2023-05-13T19:05:54.525Z,19.49
2023-05-13T19:08:21.341Z,19.49
2023-05-13T19:10:50.489Z,19.48
2023-05-13T19:13:19.947Z,19.47
2023-05-13T19:15:46.955Z,19.46
2023-05-13T19:18:14.015Z,19.45
2023-05-13T19:20:41.411Z,19.45
2023-05-13T19:23:08.252Z,19.46
2023-05-13T19:25:35.294Z,19.48
2023-05-13T19:28:02.534Z,19.51
2023-05-13T19:30:29.568Z,19.58
2023-05-13T19:32:56.449Z,19.63
2023-05-13T19:35:23.635Z,19.68
2023-05-13T19:37:50.576Z,19.73
2023-05-13T19:40:17.413Z,19.79
2023-05-13T19:42:45.052Z,19.91
2023-05-13T19:45:12.113Z,19.98
2023-05-13T19:47:41.205Z,20.03
2023-05-13T19:50:08.814Z,20.08
2023-05-13T19:52:35.713Z,20.15
2023-05-13T19:55:02.618Z,20.20
2023-05-13T19:57:30.179Z,20.26
2023-05-13T19:59:59.271Z,20.32
2023-05-13T20:02:26.151Z,20.40
2023-05-13T20:04:53.146Z,20.45
2023-05-13T20:07:22.428Z,20.49
2023-05-13T20:09:51.568Z,20.55
2023-05-13T20:12:18.811Z,20.60
2023-05-13T20:14:47.324Z,20.66
2023-05-13T20:17:18.582Z,20.71
2023-05-13T20:19:47.560Z,20.77
2023-05-13T20:22:14.785Z,20.83
2023-05-13T20:24:42.931Z,20.89
2023-05-13T20:27:09.774Z,20.96
2023-05-13T20:29:38.429Z,21.03
2023-05-13T20:32:06.813Z,21.07
2023-05-13T20:34:35.198Z,21.12
2023-05-13T20:37:02.393Z,21.18
2023-05-13T20:39:29.400Z,21.24
2023-05-13T20:41:56.755Z,21.30
2023-05-13T20:44:23.924Z,21.35
2023-05-13T20:46:50.989Z,21.41
2023-05-13T20:49:17.821Z,21.45
2023-05-13T20:51:45.191Z,21.51
2023-05-13T20:54:12.134Z,21.55
2023-05-13T20:56:39.354Z,21.61
2023-05-13T20:59:06.563Z,21.66
2023-05-13T21:01:34.491Z,21.71
2023-05-13T21:04:02.741Z,21.76
2023-05-13T21:06:29.776Z,21.80
2023-05-13T21:08:58.858Z,21.84
2023-05-13T21:11:25.656Z,21.88
2023-05-13T21:13:54.583Z,21.90
2023-05-13T21:16:21.343Z,21.95
2023-05-13T21:18:48.161Z,21.96
2023-05-13T21:21:14.884Z,21.98
2023-05-13T21:23:43.570Z,21.99
2023-05-13T21:26:10.767Z,21.99
2023-05-13T21:28:37.527Z,22.01
2023-05-13T21:31:04.251Z,22.03
2023-05-13T21:33:31.110Z,22.03
2023-05-13T21:36:00.110Z,22.04
2023-05-13T21:38:27.428Z,22.05
2023-05-13T21:40:54.390Z,22.06
2023-05-13T21:43:21.132Z,22.05
2023-05-13T21:45:48.432Z,22.05
2023-05-13T21:48:16.717Z,22.06
2023-05-13T21:50:43.520Z,22.05
2023-05-13T21:53:10.287Z,22.03
2023-05-13T21:55:36.892Z,22.02
2023-05-13T21:58:03.572Z,22.01
2023-05-13T22:00:30.354Z,22.02
2023-05-13T22:03:00.490Z,22.01
2023-05-13T22:05:27.679Z,22.06
2023-05-13T22:07:54.434Z,22.10
2023-05-13T22:10:23.551Z,22.11
2023-05-13T22:12:50.441Z,22.14
2023-05-13T22:15:17.126Z,22.17
2023-05-13T22:17:43.967Z,22.22
2023-05-13T22:20:11.268Z,22.24
2023-05-13T22:22:37.924Z,22.29
2023-05-13T22:25:04.870Z,22.32
2023-05-13T22:27:31.556Z,22.37
2023-05-13T22:29:58.207Z,22.40
2023-05-13T22:32:25.120Z,22.42
2023-05-13T22:34:51.917Z,22.45
2023-05-13T22:37:18.639Z,22.48
2023-05-13T22:39:47.807Z,22.49
2023-05-13T22:42:14.481Z,22.52
2023-05-13T22:44:42.425Z,22.54
2023-05-13T22:47:09.084Z,22.55
2023-05-13T22:49:38.076Z,22.58
2023-05-13T22:52:05.001Z,22.58
2023-05-13T22:54:31.688Z,22.59
2023-05-13T22:56:59.201Z,22.58
2023-05-13T22:59:26.923Z,22.60
2023-05-13T23:01:53.697Z,22.61
2023-05-13T23:04:20.432Z,22.61
2023-05-13T23:06:47.267Z,22.61
2023-05-13T23:09:14.013Z,22.60
2023-05-13T23:11:41.009Z,22.58
2023-05-13T23:14:08.129Z,22.62
2023-05-13T23:16:35.491Z,22.63
2023-05-13T23:19:02.571Z,22.62
2023-05-13T23:21:29.353Z,22.63
2023-05-13T23:23:55.942Z,22.64
2023-05-13T23:26:24.806Z,22.63
2023-05-13T23:28:51.469Z,22.62
2023-05-13T23:31:18.129Z,22.62
2023-05-13T23:33:44.983Z,22.62
2023-05-13T23:36:12.481Z,22.61
2023-05-13T23:38:39.143Z,22.61
2023-05-13T23:41:05.797Z,22.61
2023-05-13T23:43:32.415Z,22.60
2023-05-13T23:45:59.084Z,22.59
2023-05-13T23:48:27.998Z,22.59
2023-05-13T23:50:54.635Z,22.59
2023-05-13T23:53:21.221Z,22.57
2023-05-13T23:55:48.062Z,22.57
2023-05-13T23:58:14.728Z,22.54
